Time;durP1;ratioP1;P1;durP2;ratioP2;P2;SDS_P1;SDS_P2;PMS_P1;PMS_P2;Temp;Humidity;BMP_temperature;BMP_pressure;BME280_temperature;BME280_humidity;BME280_pressure;Samples;Min_cycle;Max_cycle;Signal;HPM_P1;HPM_P2
2023/06/11 00:00:43;;;;;;;;;;;;;;;17.71;61.48;92576.06;2058906;69;20109;-75
2023/06/11 00:03:09;;;;;;;;;;;;;;;17.67;61.52;92575.94;2059172;69;20097;-75
2023/06/11 00:05:35;;;;;;;;;;;;;;;17.57;61.95;92575.59;2058726;69;20046;-75
2023/06/11 00:08:00;;;;;;;;;;;;;;;17.54;62.29;92585.44;2062219;69;20046;-76
2023/06/11 00:10:27;;;;;;;;;;;;;;;17.36;63.11;92579.16;2062069;69;20052;-75
2023/06/11 00:12:52;;;;;;;;;;;;;;;17.35;63.11;92563.47;2058032;69;20053;-76
2023/06/11 00:15:18;;;;;;;;;;;;;;;17.34;63.05;92570.56;2055725;69;20049;-75
2023/06/11 00:17:43;;;;;;;;;;;;;;;17.36;62.91;92562.81;2062074;69;20133;-75
2023/06/11 00:20:11;;;;;;;;;;;;;;;17.32;63.00;92567.63;2062187;69;20064;-76
2023/06/11 00:22:37;;;;;;;;;;;;;;;17.27;63.48;92563.91;2058392;69;20065;-76
2023/06/11 00:25:03;;;;;;;;;;;;;;;17.16;63.61;92571.38;2056968;69;20490;-75
2023/06/11 00:27:28;;;;;;;;;;;;;;;17.17;63.55;92567.16;2058994;69;20042;-75
2023/06/11 00:29:54;;;;;;;;;;;;;;;17.14;64.06;92568.47;2058202;69;20054;-76
2023/06/11 00:32:20;;;;;;;;;;;;;;;17.05;63.80;92572.44;2058785;69;20050;-76
2023/06/11 00:34:45;;;;;;;;;;;;;;;16.94;64.44;92565.66;2058815;69;20137;-76
2023/06/11 00:37:11;;;;;;;;;;;;;;;16.91;64.02;92574.78;2058400;69;20058;-75
2023/06/11 00:39:37;;;;;;;;;;;;;;;16.94;64.33;92571.34;2058798;69;20058;-76
2023/06/11 00:42:02;;;;;;;;;;;;;;;16.96;64.17;92562.16;2055124;69;20050;-76
2023/06/11 00:44:29;;;;;;;;;;;;;;;16.97;64.10;92569.31;2054806;69;20170;-76
2023/06/11 00:46:56;;;;;;;;;;;;;;;17.03;63.25;92572.34;2058518;69;20054;-76
2023/06/11 00:49:22;;;;;;;;;;;;;;;17.03;63.89;92578.75;2058593;69;20117;-75
2023/06/11 00:51:48;;;;;;;;;;;;;;;17.10;63.28;92574.03;2058662;69;20069;-77
2023/06/11 00:54:16;;;;;;;;;;;;;;;17.00;63.54;92577.25;2054841;69;20433;-77
2023/06/11 00:56:51;;;;;;;;;;;;;;;16.91;64.71;92581.19;2058248;69;20468;-75
2023/06/11 01:02:53;;;;;;;;;;;;;;;17.02;64.14;92588.69;2058153;69;20482;-76
2023/06/11 01:05:21;;;;;;;;;;;;;;;16.98;64.01;92573.59;2058635;69;20140;-76
2023/06/11 01:07:51;;;;;;;;;;;;;;;16.94;64.74;92577.03;2055474;69;20062;-76
2023/06/11 01:10:21;;;;;;;;;;;;;;;16.93;64.42;92574.84;2055502;69;20208;-77
2023/06/11 01:12:48;;;;;;;;;;;;;;;16.79;65.11;92583.59;2055365;69;20046;-76
2023/06/11 01:15:14;;;;;;;;;;;;;;;16.82;64.89;92585.13;2055343;69;20066;-75
2023/06/11 01:18:00;;;;;;;;;;;;;;;17.03;63.32;92586.56;2058900;69;20065;-76
2023/06/11 01:20:34;;;;;;;;;;;;;;;17.06;63.93;92590.94;2055336;69;20563;-76
2023/06/11 01:23:20;;;;;;;;;;;;;;;16.83;64.93;92591.53;2055399;69;20121;-76
2023/06/11 01:25:54;;;;;;;;;;;;;;;16.93;64.29;92589.06;2052670;69;20433;-76
2023/06/11 01:28:26;;;;;;;;;;;;;;;16.94;63.85;92591.25;2055718;69;20046;-76
2023/06/11 01:30:55;;;;;;;;;;;;;;;16.89;64.17;92603.84;2055265;69;20627;-76
2023/06/11 01:33:24;;;;;;;;;;;;;;;16.95;63.88;92597.66;2055275;69;20053;-75
2023/06/11 01:35:58;;;;;;;;;;;;;;;17.02;63.58;92602.19;2054804;69;20050;-76
2023/06/11 01:38:30;;;;;;;;;;;;;;;16.51;65.26;92601.03;2055418;69;20042;-75
2023/06/11 01:40:58;;;;;;;;;;;;;;;16.77;64.43;92600.59;2054955;69;20080;-75
2023/06/11 01:43:25;;;;;;;;;;;;;;;16.87;64.04;92600.22;2054526;69;20554;-75
2023/06/11 01:45:51;;;;;;;;;;;;;;;16.79;64.73;92603.50;2054495;69;20054;-75
2023/06/11 01:48:17;;;;;;;;;;;;;;;16.84;65.08;92601.53;2054317;69;20439;-76
2023/06/11 01:50:42;;;;;;;;;;;;;;;16.88;64.66;92596.72;2055045;69;20153;-76
2023/06/11 01:53:09;;;;;;;;;;;;;;;16.91;64.62;92601.09;2058669;69;20100;-74
2023/06/11 01:55:36;;;;;;;;;;;;;;;16.70;65.84;92607.41;2055976;69;20066;-76
2023/06/11 01:58:02;;;;;;;;;;;;;;;16.59;65.67;92602.75;2061675;69;20512;-76
2023/06/11 02:00:28;;;;;;;;;;;;;;;16.64;65.40;92604.34;2058535;69;20077;-75
2023/06/11 02:02:53;;;;;;;;;;;;;;;16.64;65.70;92607.91;2058437;69;20077;-75
2023/06/11 02:05:19;;;;;;;;;;;;;;;16.79;64.80;92611.31;2058339;69;20402;-75
2023/06/11 02:07:48;;;;;;;;;;;;;;;16.92;64.59;92616.03;2057693;69;20515;-74
2023/06/11 02:10:13;;;;;;;;;;;;;;;16.95;65.00;92615.47;2058447;69;20054;-74
2023/06/11 02:12:39;;;;;;;;;;;;;;;17.03;64.35;92612.88;2058688;69;20116;-75
2023/06/11 02:15:05;;;;;;;;;;;;;;;17.08;64.85;92619.44;2058882;69;20066;-74
2023/06/11 02:17:31;;;;;;;;;;;;;;;17.14;64.75;92613.25;2057948;69;20053;-75
2023/06/11 02:19:56;;;;;;;;;;;;;;;16.41;67.12;92617.00;2058470;69;20053;-74
2023/06/11 02:22:22;;;;;;;;;;;;;;;16.50;67.31;92619.47;2061521;69;20065;-74
2023/06/11 02:24:47;;;;;;;;;;;;;;;16.84;66.62;92613.63;2057646;69;20049;-74
2023/06/11 02:27:13;;;;;;;;;;;;;;;16.89;66.90;92608.81;2055281;69;20057;-75
2023/06/11 02:29:39;;;;;;;;;;;;;;;17.07;65.87;92603.06;2058251;69;20480;-74
2023/06/11 02:32:06;;;;;;;;;;;;;;;17.12;64.88;92601.81;2061506;69;20447;-74
2023/06/11 02:34:31;;;;;;;;;;;;;;;17.16;65.24;92611.22;2060464;69;20062;-75
2023/06/11 02:36:56;;;;;;;;;;;;;;;17.13;65.51;92612.50;2052389;69;20140;-73
2023/06/11 02:39:22;;;;;;;;;;;;;;;17.22;64.72;92600.03;2054948;69;20089;-74
2023/06/11 02:41:47;;;;;;;;;;;;;;;17.26;64.18;92608.72;2058724;69;20078;-75
2023/06/11 02:44:13;;;;;;;;;;;;;;;17.29;64.91;92603.84;2054934;69;20141;-74
2023/06/11 02:46:38;;;;;;;;;;;;;;;17.30;64.72;92608.13;2058701;69;20501;-74
2023/06/11 02:49:03;;;;;;;;;;;;;;;17.30;64.60;92605.28;2058758;69;20061;-74
2023/06/11 02:51:29;;;;;;;;;;;;;;;16.81;65.96;92614.19;2055228;69;20432;-75
2023/06/11 02:53:54;;;;;;;;;;;;;;;16.94;65.78;92611.13;2058922;69;20154;-75
2023/06/11 02:56:20;;;;;;;;;;;;;;;16.81;65.91;92612.09;2058405;69;20413;-76
2023/06/11 02:58:47;;;;;;;;;;;;;;;17.06;65.37;92610.13;2055289;69;20120;-76
2023/06/11 03:01:14;;;;;;;;;;;;;;;17.05;65.13;92614.38;2055412;69;20505;-75
2023/06/11 03:03:39;;;;;;;;;;;;;;;17.01;66.23;92614.94;2055196;69;20057;-74
2023/06/11 03:06:05;;;;;;;;;;;;;;;17.11;64.98;92612.47;2055186;69;20503;-75
2023/06/11 03:08:32;;;;;;;;;;;;;;;17.07;65.78;92608.75;2058714;69;20058;-75
2023/06/11 03:10:58;;;;;;;;;;;;;;;17.13;64.82;92606.09;2058898;69;20053;-75
2023/06/11 03:13:23;;;;;;;;;;;;;;;16.60;67.18;92607.75;2054971;69;20093;-74
2023/06/11 03:15:51;;;;;;;;;;;;;;;16.88;66.26;92613.78;2052297;69;20125;-74
2023/06/11 03:18:17;;;;;;;;;;;;;;;16.99;66.09;92614.84;2052577;69;20045;-74
2023/06/11 03:20:43;;;;;;;;;;;;;;;17.03;66.08;92610.03;2055252;69;20057;-76
2023/06/11 03:23:10;;;;;;;;;;;;;;;17.06;66.17;92610.84;2055232;69;20065;-75
2023/06/11 03:25:37;;;;;;;;;;;;;;;17.06;66.39;92619.38;2055308;69;20496;-75
2023/06/11 03:28:03;;;;;;;;;;;;;;;17.16;65.68;92614.06;2055472;69;20081;-75
2023/06/11 03:30:30;;;;;;;;;;;;;;;17.06;66.28;92618.66;2052955;69;20058;-75
2023/06/11 03:32:56;;;;;;;;;;;;;;;17.26;64.95;92617.25;2059304;69;20057;-75
2023/06/11 03:35:21;;;;;;;;;;;;;;;17.26;64.99;92613.66;2054408;69;20164;-76
2023/06/11 03:37:47;;;;;;;;;;;;;;;17.27;64.97;92613.03;2056038;69;20149;-74
2023/06/11 03:40:18;;;;;;;;;;;;;;;17.24;65.37;92613.63;2056092;69;20497;-75
2023/06/11 03:42:46;;;;;;;;;;;;;;;17.26;65.70;92610.81;2056891;69;20062;-75
2023/06/11 03:45:12;;;;;;;;;;;;;;;17.24;66.45;92605.81;2057851;69;20042;-74
2023/06/11 03:47:38;;;;;;;;;;;;;;;17.27;65.62;92604.50;2061549;69;20069;-75
2023/06/11 03:50:04;;;;;;;;;;;;;;;17.24;66.25;92610.78;2059244;69;20074;-75
2023/06/11 03:52:30;;;;;;;;;;;;;;;17.14;67.08;92607.59;2055136;69;20455;-74
2023/06/11 03:54:59;;;;;;;;;;;;;;;17.36;66.22;92616.13;2056590;69;20116;-74
2023/06/11 03:57:24;;;;;;;;;;;;;;;17.33;65.83;92621.03;2058149;69;20093;-75
2023/06/11 03:59:51;;;;;;;;;;;;;;;17.20;66.06;92619.16;2058047;69;20068;-75
2023/06/11 04:02:16;;;;;;;;;;;;;;;16.78;67.78;92619.09;2056706;69;20073;-75
2023/06/11 04:04:42;;;;;;;;;;;;;;;17.17;66.21;92620.47;2058556;69;20568;-74
2023/06/11 04:07:08;;;;;;;;;;;;;;;17.40;64.91;92622.69;2054696;69;20054;-74
2023/06/11 04:09:33;;;;;;;;;;;;;;;17.50;64.69;92630.84;2055440;69;20054;-74
2023/06/11 04:11:59;;;;;;;;;;;;;;;17.36;66.46;92630.38;2059242;69;20142;-75
2023/06/11 04:14:24;;;;;;;;;;;;;;;17.46;65.66;92628.63;2059194;69;20085;-74
2023/06/11 04:16:50;;;;;;;;;;;;;;;17.50;66.23;92636.53;2058318;69;20046;-76
2023/06/11 04:19:16;;;;;;;;;;;;;;;17.54;65.26;92634.56;2057629;69;20057;-75
2023/06/11 04:21:43;;;;;;;;;;;;;;;17.41;65.20;92637.66;2055042;69;20124;-74
2023/06/11 04:24:08;;;;;;;;;;;;;;;17.54;64.83;92636.69;2056026;69;20054;-73
2023/06/11 04:26:36;;;;;;;;;;;;;;;17.58;65.01;92648.22;2054663;69;20100;-74
2023/06/11 04:29:03;;;;;;;;;;;;;;;17.11;68.06;92643.00;2054316;69;20806;-74
2023/06/11 04:31:29;;;;;;;;;;;;;;;17.44;66.17;92642.03;2056791;69;20077;-74
2023/06/11 04:34:02;;;;;;;;;;;;;;;17.52;64.73;92650.84;2056019;69;20140;-74
2023/06/11 04:36:29;;;;;;;;;;;;;;;17.59;65.10;92643.25;2061433;69;20054;-74
2023/06/11 04:38:55;;;;;;;;;;;;;;;17.70;65.14;92645.78;2057787;69;20050;-75
2023/06/11 04:41:26;;;;;;;;;;;;;;;17.71;65.21;92650.06;2057730;69;20054;-76
2023/06/11 04:43:52;;;;;;;;;;;;;;;17.65;65.42;92644.19;2057824;69;20221;-75
2023/06/11 04:46:18;;;;;;;;;;;;;;;17.79;64.89;92652.50;2062010;69;20095;-74
2023/06/11 04:48:43;;;;;;;;;;;;;;;17.87;63.78;92649.94;2061382;69;20077;-74
2023/06/11 04:51:11;;;;;;;;;;;;;;;17.83;63.81;92654.75;2057509;69;20065;-74
2023/06/11 04:53:41;;;;;;;;;;;;;;;17.67;64.91;92646.38;2057625;69;20054;-74
2023/06/11 04:56:09;;;;;;;;;;;;;;;17.69;65.25;92649.28;2055305;69;20048;-74
2023/06/11 04:58:37;;;;;;;;;;;;;;;17.19;67.53;92651.84;2058033;69;20168;-74
2023/06/11 05:01:05;;;;;;;;;;;;;;;17.64;66.02;92654.13;2057891;69;20049;-74
2023/06/11 05:03:32;;;;;;;;;;;;;;;17.67;65.80;92654.91;2057671;69;20440;-74
2023/06/11 05:05:58;;;;;;;;;;;;;;;17.83;65.15;92646.22;2057709;69;20085;-73
2023/06/11 05:08:25;;;;;;;;;;;;;;;17.91;66.11;92646.47;2057599;69;20247;-75
2023/06/11 05:10:52;;;;;;;;;;;;;;;17.91;64.93;92643.63;2057669;69;20049;-75
2023/06/11 05:13:24;;;;;;;;;;;;;;;17.81;63.85;92646.13;2057755;69;20065;-76
2023/06/11 05:15:57;;;;;;;;;;;;;;;18.03;64.17;92638.31;2058075;69;20160;-75
2023/06/11 05:18:26;;;;;;;;;;;;;;;17.24;66.00;92642.06;2057524;69;20518;-76
2023/06/11 05:20:54;;;;;;;;;;;;;;;17.30;66.50;92653.66;2054939;69;20082;-74
2023/06/11 05:23:27;;;;;;;;;;;;;;;17.83;64.21;92646.22;2061367;69;20144;-75
2023/06/11 05:25:53;;;;;;;;;;;;;;;18.12;64.08;92645.75;2054942;69;20052;-76
2023/06/11 05:28:20;;;;;;;;;;;;;;;18.24;62.22;92642.56;2054546;69;20082;-75
2023/06/11 05:30:52;;;;;;;;;;;;;;;18.21;62.48;92641.03;2057425;69;20073;-75
2023/06/11 05:33:17;;;;;;;;;;;;;;;18.36;62.59;92642.94;2057487;69;20116;-75
2023/06/11 05:35:43;;;;;;;;;;;;;;;18.41;63.09;92644.50;2054241;69;20086;-75
2023/06/11 05:38:09;;;;;;;;;;;;;;;18.47;61.07;92644.72;2055470;69;20060;-74
2023/06/11 05:40:36;;;;;;;;;;;;;;;18.44;60.65;92648.88;2056564;69;20073;-75
2023/06/11 05:43:03;;;;;;;;;;;;;;;17.34;66.12;92650.94;2054764;69;20058;-75
2023/06/11 05:45:30;;;;;;;;;;;;;;;17.50;65.92;92645.84;2058161;69;20045;-75
2023/06/11 05:47:55;;;;;;;;;;;;;;;18.04;64.25;92646.19;2054529;69;20076;-75
2023/06/11 05:50:21;;;;;;;;;;;;;;;18.35;63.79;92655.72;2054951;69;20393;-75
2023/06/11 05:52:47;;;;;;;;;;;;;;;18.47;63.12;92661.09;2054604;69;20065;-77
2023/06/11 05:55:13;;;;;;;;;;;;;;;18.44;63.50;92648.88;2055062;69;20054;-76
2023/06/11 05:57:38;;;;;;;;;;;;;;;18.59;62.27;92650.03;2055441;69;20049;-76
2023/06/11 06:00:07;;;;;;;;;;;;;;;18.73;62.47;92655.47;2055328;69;20097;-76
2023/06/11 06:02:40;;;;;;;;;;;;;;;18.56;62.83;92659.94;2059814;69;20058;-76
2023/06/11 06:05:08;;;;;;;;;;;;;;;18.84;61.31;92665.06;2055109;69;20510;-76
2023/06/11 06:07:33;;;;;;;;;;;;;;;17.86;65.62;92659.84;2060719;69;20050;-75
2023/06/11 06:09:59;;;;;;;;;;;;;;;18.14;64.67;92650.75;2060427;69;20485;-76
2023/06/11 06:12:26;;;;;;;;;;;;;;;18.65;63.49;92660.91;2060785;69;20081;-75
2023/06/11 06:14:52;;;;;;;;;;;;;;;18.29;64.14;92658.38;2060565;69;20058;-76
2023/06/11 06:17:17;;;;;;;;;;;;;;;17.77;65.85;92658.13;2057234;69;20057;-74
2023/06/11 06:19:43;;;;;;;;;;;;;;;18.28;64.21;92656.94;2057344;69;20046;-74
2023/06/11 06:22:09;;;;;;;;;;;;;;;18.78;63.20;92651.34;2058776;69;20068;-75
2023/06/11 06:24:35;;;;;;;;;;;;;;;19.04;61.64;92660.66;2058247;69;20097;-75
2023/06/11 06:27:00;;;;;;;;;;;;;;;19.15;62.13;92660.94;2056828;69;20432;-74
2023/06/11 06:29:32;;;;;;;;;;;;;;;19.13;61.50;92663.75;2056673;69;20049;-74
2023/06/11 06:31:58;;;;;;;;;;;;;;;19.23;61.30;92655.47;2056715;69;20124;-75
2023/06/11 06:34:25;;;;;;;;;;;;;;;19.42;61.30;92668.84;2058876;69;20062;-75
2023/06/11 06:36:52;;;;;;;;;;;;;;;19.36;60.73;92659.41;2056789;69;20484;-74
2023/06/11 06:39:18;;;;;;;;;;;;;;;19.40;60.95;92665.94;2056163;69;20089;-75
2023/06/11 06:41:43;;;;;;;;;;;;;;;19.40;60.95;92659.53;2056706;69;20077;-74
2023/06/11 06:44:11;;;;;;;;;;;;;;;19.15;61.37;92663.81;2057400;69;20068;-75
2023/06/11 06:46:37;;;;;;;;;;;;;;;19.28;60.21;92666.34;2060585;69;20062;-75
2023/06/11 06:49:03;;;;;;;;;;;;;;;18.91;61.47;92663.84;2054901;69;20049;-77
2023/06/11 06:51:29;;;;;;;;;;;;;;;18.48;62.62;92666.09;2056536;69;20042;-74
2023/06/11 06:53:55;;;;;;;;;;;;;;;18.89;61.43;92660.94;2056504;69;20156;-75
2023/06/11 06:56:22;;;;;;;;;;;;;;;19.14;60.49;92670.91;2054288;69;20079;-74
2023/06/11 06:58:48;;;;;;;;;;;;;;;18.89;61.19;92670.22;2057916;69;20108;-74
2023/06/11 07:01:14;;;;;;;;;;;;;;;19.02;60.03;92663.47;2056490;69;20117;-74
2023/06/11 07:03:41;;;;;;;;;;;;;;;18.97;60.63;92673.31;2054670;69;20065;-73
2023/06/11 07:06:07;;;;;;;;;;;;;;;19.34;59.24;92667.94;2054457;69;20519;-73
2023/06/11 07:08:32;;;;;;;;;;;;;;;19.18;59.88;92663.19;2058523;69;20054;-74
2023/06/11 07:10:58;;;;;;;;;;;;;;;19.21;60.25;92666.84;2054921;69;20166;-74
2023/06/11 07:13:44;;;;;;;;;;;;;;;19.18;60.13;92660.34;2058560;69;20066;-74
2023/06/11 07:16:10;;;;;;;;;;;;;;;19.14;60.04;92657.38;2055680;69;20512;-74
2023/06/11 07:18:39;;;;;;;;;;;;;;;19.56;59.09;92659.94;2054496;69;20046;-74
2023/06/11 07:21:04;;;;;;;;;;;;;;;19.93;58.71;92661.69;2055273;69;20096;-74
2023/06/11 07:23:31;;;;;;;;;;;;;;;19.98;58.39;92656.78;2054614;69;20148;-75
2023/06/11 07:25:57;;;;;;;;;;;;;;;20.24;59.72;92654.56;2055961;69;20665;-75
2023/06/11 07:28:25;;;;;;;;;;;;;;;20.30;59.30;92660.44;2057183;69;20224;-76
2023/06/11 07:30:50;;;;;;;;;;;;;;;20.19;57.41;92655.88;2055018;69;20174;-75
2023/06/11 07:33:17;;;;;;;;;;;;;;;20.20;56.55;92645.88;2054592;69;20464;-75
2023/06/11 07:35:43;;;;;;;;;;;;;;;20.12;56.34;92650.72;2055157;69;20558;-77
2023/06/11 07:38:08;;;;;;;;;;;;;;;20.13;55.37;92649.28;2055590;69;20132;-75
2023/06/11 07:40:34;;;;;;;;;;;;;;;20.10;55.72;92650.63;2052856;69;20062;-76
2023/06/11 07:42:59;;;;;;;;;;;;;;;20.40;55.15;92644.94;2052580;69;20061;-75
2023/06/11 07:45:28;;;;;;;;;;;;;;;20.16;56.48;92642.22;2055245;69;20050;-76
2023/06/11 07:47:53;;;;;;;;;;;;;;;20.38;54.87;92634.16;2054940;69;20054;-75
2023/06/11 07:50:19;;;;;;;;;;;;;;;20.69;54.56;92623.47;2055100;69;20057;-76
2023/06/11 07:52:45;;;;;;;;;;;;;;;20.79;54.16;92621.53;2054697;69;20464;-76
2023/06/11 07:55:18;;;;;;;;;;;;;;;20.95;54.34;92620.44;2054358;69;20061;-76
2023/06/11 07:57:43;;;;;;;;;;;;;;;20.46;53.97;92625.78;2058107;69;20413;-77
2023/06/11 08:00:12;;;;;;;;;;;;;;;20.66;53.39;92619.81;2058097;69;20164;-77
2023/06/11 08:02:39;;;;;;;;;;;;;;;20.80;54.15;92617.28;2058204;69;20570;-77
2023/06/11 08:05:04;;;;;;;;;;;;;;;20.90;53.12;92618.91;2057893;69;20302;-75
2023/06/11 08:07:30;;;;;;;;;;;;;;;21.75;53.49;92611.28;2057452;69;20054;-77
2023/06/11 08:09:55;;;;;;;;;;;;;;;21.46;53.10;92613.63;2054604;69;20074;-76
2023/06/11 08:12:21;;;;;;;;;;;;;;;21.96;51.34;92607.34;2058561;69;20050;-76
2023/06/11 08:14:46;;;;;;;;;;;;;;;22.23;50.75;92599.94;2058843;69;20082;-77
2023/06/11 08:17:11;;;;;;;;;;;;;;;22.11;50.89;92599.00;2054812;69;20056;-77
2023/06/11 08:19:37;;;;;;;;;;;;;;;22.11;49.87;92593.25;2053272;69;20517;-76
2023/06/11 08:22:02;;;;;;;;;;;;;;;22.26;48.82;92594.94;2057767;69;20058;-76
2023/06/11 08:24:30;;;;;;;;;;;;;;;22.74;47.43;92594.94;2058495;69;20146;-76
2023/06/11 08:26:56;;;;;;;;;;;;;;;23.17;47.94;92589.06;2058323;69;20070;-76
2023/06/11 08:29:21;;;;;;;;;;;;;;;23.72;47.00;92593.28;2058720;69;20070;-77
2023/06/11 08:31:47;;;;;;;;;;;;;;;23.90;45.63;92594.91;2058225;69;20061;-77
2023/06/11 08:34:13;;;;;;;;;;;;;;;24.12;45.37;92595.13;2058751;69;20058;-77
2023/06/11 08:36:40;;;;;;;;;;;;;;;24.21;44.86;92595.91;2058724;69;20177;-76
2023/06/11 08:39:06;;;;;;;;;;;;;;;24.09;43.30;92590.75;2054651;69;20163;-75
2023/06/11 08:41:31;;;;;;;;;;;;;;;24.22;44.06;92595.19;2061303;69;20481;-76
2023/06/11 08:43:57;;;;;;;;;;;;;;;24.38;44.41;92596.78;2058098;69;20054;-76
2023/06/11 08:46:24;;;;;;;;;;;;;;;24.42;46.35;92596.81;2062132;69;20054;-76
2023/06/11 08:48:56;;;;;;;;;;;;;;;24.66;45.24;92585.47;2061913;69;20045;-76
2023/06/11 08:51:22;;;;;;;;;;;;;;;25.13;42.66;92582.88;2061930;69;20082;-76
2023/06/11 08:53:49;;;;;;;;;;;;;;;25.90;43.36;92588.19;2062053;69;20056;-76
2023/06/11 08:56:15;;;;;;;;;;;;;;;24.83;42.71;92575.50;2061936;69;20057;-76
2023/06/11 08:58:41;;;;;;;;;;;;;;;25.37;42.36;92572.91;2061910;69;20467;-77
2023/06/11 09:01:10;;;;;;;;;;;;;;;26.36;41.79;92570.19;2061809;69;20061;-77
2023/06/11 09:03:36;;;;;;;;;;;;;;;26.45;39.97;92564.47;2061240;69;20057;-76
2023/06/11 09:06:01;;;;;;;;;;;;;;;26.38;41.92;92560.81;2061252;69;20061;-76
2023/06/11 09:08:27;;;;;;;;;;;;;;;27.19;40.95;92562.16;2061116;69;20054;-76
2023/06/11 09:10:53;;;;;;;;;;;;;;;27.75;40.01;92561.19;2061465;69;20049;-76
2023/06/11 09:13:19;;;;;;;;;;;;;;;27.34;39.63;92563.53;2062060;69;20138;-76
2023/06/11 09:15:52;;;;;;;;;;;;;;;26.12;40.01;92557.94;2055489;69;20069;-76
2023/06/11 09:18:22;;;;;;;;;;;;;;;27.08;39.07;92555.69;2061809;69;20451;-77
2023/06/11 09:21:00;;;;;;;;;;;;;;;27.83;37.54;92560.44;2062223;69;20057;-76
2023/06/11 09:23:30;;;;;;;;;;;;;;;27.95;38.23;92556.72;2062033;69;20076;-76
2023/06/11 09:25:56;;;;;;;;;;;;;;;27.35;38.61;92562.09;2061839;69;20073;-76
2023/06/11 09:28:27;;;;;;;;;;;;;;;26.76;38.77;92560.09;2062113;69;20077;-76
2023/06/11 09:30:53;;;;;;;;;;;;;;;26.25;40.34;92557.22;2062338;69;20131;-76
2023/06/11 09:33:18;;;;;;;;;;;;;;;26.09;39.97;92565.88;2062496;69;20481;-76
2023/06/11 09:35:45;;;;;;;;;;;;;;;26.42;40.01;92557.94;2061961;69;20095;-76
2023/06/11 09:38:14;;;;;;;;;;;;;;;26.61;39.54;92559.38;2061786;69;20065;-76
2023/06/11 09:40:39;;;;;;;;;;;;;;;27.17;39.12;92553.50;2061756;69;20231;-76
2023/06/11 09:43:05;;;;;;;;;;;;;;;27.11;38.38;92554.25;2062079;69;20489;-76
2023/06/11 09:45:31;;;;;;;;;;;;;;;27.00;38.21;92549.94;2062196;69;20057;-77
2023/06/11 09:47:57;;;;;;;;;;;;;;;26.52;39.78;92552.16;2055457;69;20058;-77
2023/06/11 09:50:24;;;;;;;;;;;;;;;26.69;39.28;92552.88;2058893;69;20065;-76
2023/06/11 09:52:50;;;;;;;;;;;;;;;27.39;38.89;92547.63;2058293;69;20061;-76
2023/06/11 09:55:15;;;;;;;;;;;;;;;27.05;39.29;92551.34;2058324;69;20070;-76
2023/06/11 09:57:42;;;;;;;;;;;;;;;26.97;39.03;92548.47;2054766;69;20160;-77
2023/06/11 10:00:12;;;;;;;;;;;;;;;27.07;38.46;92549.16;2059393;69;20070;-75
2023/06/11 10:02:38;;;;;;;;;;;;;;;27.97;38.48;92551.66;2059078;69;20049;-77
2023/06/11 10:05:05;;;;;;;;;;;;;;;27.80;36.71;92547.44;2059038;69;20050;-76
2023/06/11 10:07:32;;;;;;;;;;;;;;;26.04;39.40;92547.84;2059304;69;20101;-77
2023/06/11 10:09:58;;;;;;;;;;;;;;;26.73;37.95;92549.25;2059416;69;20062;-76
2023/06/11 10:12:23;;;;;;;;;;;;;;;27.28;37.22;92546.22;2059332;69;20042;-76
2023/06/11 10:14:56;;;;;;;;;;;;;;;27.24;37.47;92546.97;2059286;69;20092;-76
2023/06/11 10:17:22;;;;;;;;;;;;;;;27.26;36.90;92541.19;2055206;69;20050;-76
2023/06/11 10:19:48;;;;;;;;;;;;;;;27.53;37.23;92549.72;2059259;69;20050;-77
2023/06/11 10:22:20;;;;;;;;;;;;;;;27.53;37.23;92544.66;2059253;69;20066;-76
2023/06/11 10:24:55;;;;;;;;;;;;;;;27.38;36.77;92546.19;2059381;69;20069;-76
2023/06/11 10:27:20;;;;;;;;;;;;;;;27.53;36.93;92543.94;2059231;69;20058;-76
2023/06/11 10:29:49;;;;;;;;;;;;;;;27.28;37.48;92538.28;2055570;69;20070;-76
2023/06/11 10:32:19;;;;;;;;;;;;;;;27.36;36.50;92538.25;2059194;69;20050;-75
2023/06/11 10:34:47;;;;;;;;;;;;;;;28.63;36.04;92543.19;2059292;69;20052;-76
2023/06/11 10:37:13;;;;;;;;;;;;;;;29.52;33.66;92547.31;2058870;69;20547;-76
2023/06/11 10:39:51;;;;;;;;;;;;;;;29.71;32.13;92538.41;2054683;69;20049;-76
2023/06/11 10:42:24;;;;;;;;;;;;;;;34.77;27.26;92550.22;2054841;69;20089;-75
2023/06/11 10:44:51;;;;;;;;;;;;;;;29.72;32.63;92542.75;2058459;69;20116;-76
2023/06/11 10:47:17;;;;;;;;;;;;;;;28.74;34.00;92535.16;2058981;69;20057;-75
2023/06/11 10:49:42;;;;;;;;;;;;;;;33.17;27.51;92533.75;2055525;69;20061;-76
2023/06/11 10:52:08;;;;;;;;;;;;;;;34.55;27.63;92540.69;2055505;69;20053;-76
2023/06/11 10:54:34;;;;;;;;;;;;;;;35.90;25.79;92539.69;2059286;69;20054;-75
2023/06/11 10:57:02;;;;;;;;;;;;;;;39.03;22.77;92549.78;2059078;69;20048;-76
2023/06/11 10:59:34;;;;;;;;;;;;;;;38.12;22.79;92546.69;2058924;69;20046;-75
2023/06/11 11:02:00;;;;;;;;;;;;;;;37.99;23.55;92543.63;2058918;69;20137;-75
2023/06/11 11:04:26;;;;;;;;;;;;;;;37.77;24.84;92538.75;2055276;69;20212;-75
2023/06/11 11:07:03;;;;;;;;;;;;;;;40.00;23.00;92547.03;2059005;69;20058;-75
2023/06/11 11:09:29;;;;;;;;;;;;;;;36.82;23.27;92530.28;2058854;69;20062;-75
2023/06/11 11:11:58;;;;;;;;;;;;;;;37.32;24.06;92528.94;2058996;69;20061;-76
2023/06/11 11:14:24;;;;;;;;;;;;;;;37.79;23.15;92533.47;2055425;69;20421;-76
2023/06/11 11:16:49;;;;;;;;;;;;;;;34.09;28.38;92514.38;2058983;69;20477;-75
2023/06/11 11:19:15;;;;;;;;;;;;;;;33.26;28.93;92519.66;2058916;69;20081;-76
2023/06/11 11:21:42;;;;;;;;;;;;;;;35.42;26.16;92518.78;2055343;69;20050;-77
2023/06/11 11:24:09;;;;;;;;;;;;;;;32.10;28.52;92502.88;2055825;69;20126;-77
2023/06/11 11:26:45;;;;;;;;;;;;;;;34.74;26.46;92508.66;2058785;69;20083;-76
2023/06/11 11:29:11;;;;;;;;;;;;;;;42.52;19.81;92530.94;2058386;69;20058;-75
2023/06/11 11:31:37;;;;;;;;;;;;;;;42.37;17.96;92513.38;2055257;69;20043;-77
2023/06/11 11:34:02;;;;;;;;;;;;;;;42.77;17.15;92523.47;2058843;69;20057;-77
2023/06/11 11:36:28;;;;;;;;;;;;;;;41.78;18.60;92504.47;2059350;69;20050;-76
2023/06/11 11:38:54;;;;;;;;;;;;;;;43.20;17.37;92514.75;2059126;69;20110;-76
2023/06/11 11:41:22;;;;;;;;;;;;;;;44.59;16.67;92506.59;2059050;69;20134;-76
2023/06/11 11:43:48;;;;;;;;;;;;;;;46.25;15.62;92518.72;2058933;69;20080;-76
2023/06/11 11:46:18;;;;;;;;;;;;;;;44.62;15.99;92501.25;2059495;69;20054;-77
2023/06/11 11:48:45;;;;;;;;;;;;;;;44.98;15.56;92506.75;2059080;69;20080;-76
2023/06/11 11:51:11;;;;;;;;;;;;;;;47.92;14.19;92504.34;2058969;69;20050;-76
2023/06/11 11:53:37;;;;;;;;;;;;;;;47.04;13.98;92493.78;2059179;69;20054;-76
2023/06/11 11:56:04;;;;;;;;;;;;;;;44.55;14.76;92486.13;2059183;69;20052;-76
2023/06/11 11:58:34;;;;;;;;;;;;;;;44.59;15.27;92482.16;2055879;69;20042;-76
2023/06/11 12:01:00;;;;;;;;;;;;;;;44.87;14.42;92482.38;2055415;69;20050;-76
2023/06/11 12:03:26;;;;;;;;;;;;;;;44.18;14.43;92475.47;2059887;69;20085;-76
2023/06/11 12:05:54;;;;;;;;;;;;;;;40.87;16.77;92464.81;2055687;69;20433;-76
2023/06/11 12:08:20;;;;;;;;;;;;;;;39.78;17.28;92462.78;2059074;69;20482;-76
2023/06/11 12:10:46;;;;;;;;;;;;;;;38.81;18.25;92445.69;2054808;69;20508;-76
2023/06/11 12:13:11;;;;;;;;;;;;;;;36.90;20.35;92433.16;2058691;69;20077;-76
2023/06/11 12:15:37;;;;;;;;;;;;;;;34.34;22.45;92435.44;2058815;69;20073;-76
2023/06/11 12:18:02;;;;;;;;;;;;;;;34.51;23.41;92429.06;2058708;69;20082;-77
2023/06/11 12:20:28;;;;;;;;;;;;;;;35.42;23.69;92424.38;2059124;69;20050;-76
2023/06/11 12:22:53;;;;;;;;;;;;;;;33.77;23.59;92418.97;2059220;69;20419;-76
2023/06/11 12:25:19;;;;;;;;;;;;;;;34.35;23.75;92418.59;2059074;69;20137;-76
2023/06/11 12:27:45;;;;;;;;;;;;;;;33.19;24.64;92422.16;2058700;69;20166;-76
2023/06/11 12:30:11;;;;;;;;;;;;;;;31.68;25.74;92420.16;2058656;69;20054;-76
2023/06/11 12:32:36;;;;;;;;;;;;;;;32.02;25.32;92418.66;2058858;69;20048;-76
2023/06/11 12:35:02;;;;;;;;;;;;;;;33.37;24.09;92418.72;2058621;69;20479;-75
2023/06/11 12:37:28;;;;;;;;;;;;;;;32.13;25.09;92426.38;2059455;69;20480;-75
2023/06/11 12:39:53;;;;;;;;;;;;;;;30.56;26.92;92405.72;2059209;69;20120;-76
2023/06/11 12:42:22;;;;;;;;;;;;;;;32.15;24.77;92413.94;2058765;69;20497;-75
2023/06/11 12:44:47;;;;;;;;;;;;;;;33.05;26.62;92406.50;2058154;69;20034;-77
2023/06/11 12:47:14;;;;;;;;;;;;;;;32.36;25.94;92403.22;2058470;69;20488;-76
2023/06/11 12:49:39;;;;;;;;;;;;;;;31.66;27.46;92399.81;2058180;69;20054;-75